sensor_id;sensor_type;location;lat;lon;timestamp;P1;durP1;ratioP1;P2;durP2;ratioP2
64791;SDS011;51226;47.504;19.074;2022-11-03T00:02:09;13.80;;;11.32;;
64791;SDS011;51226;47.504;19.074;2022-11-03T00:05:12;14.18;;;10.73;;
64791;SDS011;51226;47.504;19.074;2022-11-03T00:11:37;14.27;;;10.32;;
64791;SDS011;51226;47.504;19.074;2022-11-03T00:14:41;13.27;;;10.95;;
64791;SDS011;51226;47.504;19.074;2022-11-03T00:17:45;14.45;;;11.48;;
64791;SDS011;51226;47.504;19.074;2022-11-03T00:20:55;13.95;;;11.05;;
64791;SDS011;51226;47.504;19.074;2022-11-03T00:23:58;14.93;;;10.95;;
64791;SDS011;51226;47.504;19.074;2022-11-03T00:27:03;16.77;;;12.50;;
64791;SDS011;51226;47.504;19.074;2022-11-03T00:30:07;17.58;;;11.48;;
64791;SDS011;51226;47.504;19.074;2022-11-03T00:36:13;15.67;;;12.27;;
64791;SDS011;51226;47.504;19.074;2022-11-03T00:39:18;14.43;;;12.23;;
64791;SDS011;51226;47.504;19.074;2022-11-03T00:45:24;14.65;;;12.25;;
64791;SDS011;51226;47.504;19.074;2022-11-03T00:48:27;14.15;;;11.02;;
64791;SDS011;51226;47.504;19.074;2022-11-03T00:51:32;14.63;;;11.82;;
64791;SDS011;51226;47.504;19.074;2022-11-03T00:54:38;15.73;;;11.60;;
64791;SDS011;51226;47.504;19.074;2022-11-03T00:57:46;14.25;;;11.48;;
64791;SDS011;51226;47.504;19.074;2022-11-03T01:00:49;17.10;;;11.27;;
64791;SDS011;51226;47.504;19.074;2022-11-03T01:03:53;17.40;;;12.13;;
64791;SDS011;51226;47.504;19.074;2022-11-03T01:07:18;16.65;;;11.12;;
64791;SDS011;51226;47.504;19.074;2022-11-03T01:10:22;13.20;;;10.00;;
64791;SDS011;51226;47.504;19.074;2022-11-03T01:13:25;13.88;;;9.93;;
64791;SDS011;51226;47.504;19.074;2022-11-03T01:16:28;15.15;;;10.30;;
64791;SDS011;51226;47.504;19.074;2022-11-03T01:19:32;13.43;;;10.10;;
64791;SDS011;51226;47.504;19.074;2022-11-03T01:22:35;15.13;;;10.10;;
64791;SDS011;51226;47.504;19.074;2022-11-03T01:25:38;12.98;;;9.93;;
64791;SDS011;51226;47.504;19.074;2022-11-03T01:28:42;10.83;;;9.37;;
64791;SDS011;51226;47.504;19.074;2022-11-03T01:31:46;10.57;;;9.10;;
64791;SDS011;51226;47.504;19.074;2022-11-03T01:34:50;13.00;;;8.68;;
64791;SDS011;51226;47.504;19.074;2022-11-03T01:37:53;10.68;;;7.55;;
64791;SDS011;51226;47.504;19.074;2022-11-03T01:40:57;11.00;;;6.82;;
64791;SDS011;51226;47.504;19.074;2022-11-03T01:47:20;11.05;;;7.03;;
64791;SDS011;51226;47.504;19.074;2022-11-03T01:50:28;8.57;;;6.70;;
64791;SDS011;51226;47.504;19.074;2022-11-03T01:53:31;7.78;;;6.00;;
64791;SDS011;51226;47.504;19.074;2022-11-03T01:56:36;7.95;;;6.62;;
64791;SDS011;51226;47.504;19.074;2022-11-03T01:59:42;11.12;;;6.70;;
64791;SDS011;51226;47.504;19.074;2022-11-03T02:02:51;9.00;;;6.55;;
64791;SDS011;51226;47.504;19.074;2022-11-03T02:05:55;10.68;;;6.35;;
64791;SDS011;51226;47.504;19.074;2022-11-03T02:09:02;9.60;;;6.55;;
64791;SDS011;51226;47.504;19.074;2022-11-03T02:12:06;9.55;;;6.57;;
64791;SDS011;51226;47.504;19.074;2022-11-03T02:15:11;9.65;;;6.53;;
64791;SDS011;51226;47.504;19.074;2022-11-03T02:18:16;8.57;;;7.43;;
64791;SDS011;51226;47.504;19.074;2022-11-03T02:27:56;8.63;;;6.28;;
64791;SDS011;51226;47.504;19.074;2022-11-03T02:34:25;8.65;;;6.35;;
64791;SDS011;51226;47.504;19.074;2022-11-03T02:37:39;11.07;;;7.20;;
64791;SDS011;51226;47.504;19.074;2022-11-03T02:40:49;9.20;;;6.93;;
64791;SDS011;51226;47.504;19.074;2022-11-03T02:43:55;10.90;;;6.60;;
64791;SDS011;51226;47.504;19.074;2022-11-03T02:47:00;8.55;;;6.65;;
64791;SDS011;51226;47.504;19.074;2022-11-03T02:50:07;9.45;;;7.05;;
64791;SDS011;51226;47.504;19.074;2022-11-03T02:53:12;10.35;;;6.68;;
64791;SDS011;51226;47.504;19.074;2022-11-03T02:56:16;10.65;;;6.68;;
64791;SDS011;51226;47.504;19.074;2022-11-03T02:59:33;8.90;;;7.22;;
64791;SDS011;51226;47.504;19.074;2022-11-03T03:03:07;7.55;;;6.12;;
64791;SDS011;51226;47.504;19.074;2022-11-03T03:06:27;8.63;;;6.00;;
64791;SDS011;51226;47.504;19.074;2022-11-03T03:09:59;7.70;;;5.93;;
64791;SDS011;51226;47.504;19.074;2022-11-03T03:13:08;8.93;;;5.65;;
64791;SDS011;51226;47.504;19.074;2022-11-03T03:16:15;8.68;;;6.72;;
64791;SDS011;51226;47.504;19.074;2022-11-03T03:22:54;9.60;;;6.93;;
64791;SDS011;51226;47.504;19.074;2022-11-03T03:26:01;15.88;;;9.43;;
64791;SDS011;51226;47.504;19.074;2022-11-03T03:29:07;11.40;;;9.00;;
64791;SDS011;51226;47.504;19.074;2022-11-03T03:32:16;14.18;;;9.50;;
64791;SDS011;51226;47.504;19.074;2022-11-03T03:35:24;13.50;;;9.32;;
64791;SDS011;51226;47.504;19.074;2022-11-03T03:38:36;12.27;;;9.43;;
64791;SDS011;51226;47.504;19.074;2022-11-03T03:41:43;27.30;;;19.92;;
64791;SDS011;51226;47.504;19.074;2022-11-03T03:44:48;20.75;;;16.27;;
64791;SDS011;51226;47.504;19.074;2022-11-03T03:47:53;15.45;;;10.63;;
64791;SDS011;51226;47.504;19.074;2022-11-03T03:50:59;10.95;;;9.23;;
64791;SDS011;51226;47.504;19.074;2022-11-03T03:54:03;11.20;;;8.52;;
64791;SDS011;51226;47.504;19.074;2022-11-03T03:57:07;13.18;;;9.23;;
64791;SDS011;51226;47.504;19.074;2022-11-03T04:00:17;11.70;;;8.73;;
64791;SDS011;51226;47.504;19.074;2022-11-03T04:03:22;9.40;;;8.40;;
64791;SDS011;51226;47.504;19.074;2022-11-03T04:06:26;11.55;;;8.82;;
64791;SDS011;51226;47.504;19.074;2022-11-03T04:09:29;11.95;;;8.90;;
64791;SDS011;51226;47.504;19.074;2022-11-03T04:12:31;11.43;;;8.23;;
64791;SDS011;51226;47.504;19.074;2022-11-03T04:15:53;8.82;;;7.93;;
64791;SDS011;51226;47.504;19.074;2022-11-03T04:19:14;9.70;;;8.60;;
64791;SDS011;51226;47.504;19.074;2022-11-03T04:22:37;14.85;;;11.65;;
64791;SDS011;51226;47.504;19.074;2022-11-03T04:25:39;13.63;;;9.53;;
64791;SDS011;51226;47.504;19.074;2022-11-03T04:28:44;13.73;;;8.75;;
64791;SDS011;51226;47.504;19.074;2022-11-03T04:31:47;11.20;;;8.70;;
64791;SDS011;51226;47.504;19.074;2022-11-03T04:34:50;10.77;;;7.82;;
64791;SDS011;51226;47.504;19.074;2022-11-03T04:41:00;18.65;;;15.48;;
64791;SDS011;51226;47.504;19.074;2022-11-03T04:44:06;15.20;;;10.48;;
64791;SDS011;51226;47.504;19.074;2022-11-03T04:47:16;15.15;;;9.35;;
64791;SDS011;51226;47.504;19.074;2022-11-03T04:53:24;12.82;;;8.23;;
64791;SDS011;51226;47.504;19.074;2022-11-03T04:56:32;11.93;;;8.52;;
64791;SDS011;51226;47.504;19.074;2022-11-03T04:59:35;11.50;;;7.97;;
64791;SDS011;51226;47.504;19.074;2022-11-03T05:02:38;11.60;;;7.73;;
64791;SDS011;51226;47.504;19.074;2022-11-03T05:05:41;11.60;;;8.23;;
64791;SDS011;51226;47.504;19.074;2022-11-03T05:08:51;12.65;;;8.30;;
64791;SDS011;51226;47.504;19.074;2022-11-03T05:11:56;11.55;;;8.40;;
64791;SDS011;51226;47.504;19.074;2022-11-03T05:18:20;11.20;;;8.38;;
64791;SDS011;51226;47.504;19.074;2022-11-03T05:21:26;12.15;;;8.77;;
64791;SDS011;51226;47.504;19.074;2022-11-03T05:24:30;10.35;;;8.35;;
64791;SDS011;51226;47.504;19.074;2022-11-03T05:27:34;11.60;;;9.00;;
64791;SDS011;51226;47.504;19.074;2022-11-03T05:30:37;16.77;;;9.95;;
64791;SDS011;51226;47.504;19.074;2022-11-03T05:33:39;12.37;;;8.32;;
64791;SDS011;51226;47.504;19.074;2022-11-03T05:39:46;14.93;;;9.88;;
64791;SDS011;51226;47.504;19.074;2022-11-03T05:42:50;16.87;;;10.30;;
64791;SDS011;51226;47.504;19.074;2022-11-03T05:46:00;16.70;;;10.05;;
64791;SDS011;51226;47.504;19.074;2022-11-03T05:49:04;10.48;;;9.10;;
64791;SDS011;51226;47.504;19.074;2022-11-03T05:55:37;13.02;;;10.35;;
64791;SDS011;51226;47.504;19.074;2022-11-03T05:58:41;13.32;;;9.85;;
64791;SDS011;51226;47.504;19.074;2022-11-03T06:01:46;18.08;;;10.55;;
64791;SDS011;51226;47.504;19.074;2022-11-03T06:04:49;14.38;;;10.70;;
64791;SDS011;51226;47.504;19.074;2022-11-03T06:07:52;11.93;;;10.23;;
64791;SDS011;51226;47.504;19.074;2022-11-03T06:10:57;13.93;;;10.13;;
64791;SDS011;51226;47.504;19.074;2022-11-03T06:14:01;12.57;;;10.07;;
64791;SDS011;51226;47.504;19.074;2022-11-03T06:17:25;13.10;;;10.70;;
64791;SDS011;51226;47.504;19.074;2022-11-03T06:20:29;14.15;;;10.68;;
64791;SDS011;51226;47.504;19.074;2022-11-03T06:23:32;13.10;;;10.85;;
64791;SDS011;51226;47.504;19.074;2022-11-03T06:26:37;13.38;;;10.27;;
64791;SDS011;51226;47.504;19.074;2022-11-03T06:29:39;14.98;;;10.60;;
64791;SDS011;51226;47.504;19.074;2022-11-03T06:32:42;11.30;;;10.13;;
64791;SDS011;51226;47.504;19.074;2022-11-03T06:35:45;13.77;;;9.18;;
64791;SDS011;51226;47.504;19.074;2022-11-03T06:38:59;12.98;;;9.82;;
64791;SDS011;51226;47.504;19.074;2022-11-03T06:42:09;13.15;;;10.13;;
64791;SDS011;51226;47.504;19.074;2022-11-03T06:45:18;12.77;;;9.77;;
64791;SDS011;51226;47.504;19.074;2022-11-03T06:48:32;9.75;;;8.70;;
64791;SDS011;51226;47.504;19.074;2022-11-03T06:51:37;11.93;;;9.07;;
64791;SDS011;51226;47.504;19.074;2022-11-03T06:54:42;11.63;;;8.95;;
64791;SDS011;51226;47.504;19.074;2022-11-03T06:58:13;18.58;;;10.27;;
64791;SDS011;51226;47.504;19.074;2022-11-03T07:01:29;12.82;;;9.77;;
64791;SDS011;51226;47.504;19.074;2022-11-03T07:04:34;14.68;;;10.20;;
64791;SDS011;51226;47.504;19.074;2022-11-03T07:07:37;15.50;;;11.38;;
64791;SDS011;51226;47.504;19.074;2022-11-03T07:10:42;19.02;;;10.68;;
64791;SDS011;51226;47.504;19.074;2022-11-03T07:13:46;17.05;;;11.82;;
64791;SDS011;51226;47.504;19.074;2022-11-03T07:16:52;16.23;;;11.95;;
64791;SDS011;51226;47.504;19.074;2022-11-03T07:19:57;15.27;;;11.63;;
64791;SDS011;51226;47.504;19.074;2022-11-03T07:23:37;16.05;;;10.82;;
64791;SDS011;51226;47.504;19.074;2022-11-03T07:27:37;18.15;;;12.32;;
64791;SDS011;51226;47.504;19.074;2022-11-03T07:30:34;17.12;;;13.35;;
64791;SDS011;51226;47.504;19.074;2022-11-03T07:33:38;24.30;;;14.87;;
64791;SDS011;51226;47.504;19.074;2022-11-03T07:39:44;22.40;;;14.30;;
64791;SDS011;51226;47.504;19.074;2022-11-03T07:42:54;21.45;;;15.02;;
64791;SDS011;51226;47.504;19.074;2022-11-03T07:46:00;21.42;;;14.35;;
64791;SDS011;51226;47.504;19.074;2022-11-03T07:49:07;18.05;;;14.73;;
64791;SDS011;51226;47.504;19.074;2022-11-03T07:52:21;22.73;;;14.85;;
64791;SDS011;51226;47.504;19.074;2022-11-03T07:55:31;27.45;;;16.83;;
64791;SDS011;51226;47.504;19.074;2022-11-03T07:58:37;23.70;;;16.92;;
64791;SDS011;51226;47.504;19.074;2022-11-03T08:01:45;29.85;;;18.75;;
64791;SDS011;51226;47.504;19.074;2022-11-03T08:04:51;24.98;;;17.65;;
64791;SDS011;51226;47.504;19.074;2022-11-03T08:08:03;32.38;;;17.85;;
64791;SDS011;51226;47.504;19.074;2022-11-03T08:11:07;25.58;;;16.73;;
64791;SDS011;51226;47.504;19.074;2022-11-03T08:14:10;29.52;;;18.87;;
64791;SDS011;51226;47.504;19.074;2022-11-03T08:17:15;27.33;;;17.50;;
64791;SDS011;51226;47.504;19.074;2022-11-03T08:20:18;30.20;;;18.62;;
64791;SDS011;51226;47.504;19.074;2022-11-03T08:23:23;31.15;;;18.48;;
64791;SDS011;51226;47.504;19.074;2022-11-03T08:26:27;31.08;;;18.67;;
64791;SDS011;51226;47.504;19.074;2022-11-03T08:29:30;31.25;;;20.17;;
64791;SDS011;51226;47.504;19.074;2022-11-03T08:32:33;31.15;;;20.90;;
64791;SDS011;51226;47.504;19.074;2022-11-03T08:35:45;30.30;;;20.02;;
64791;SDS011;51226;47.504;19.074;2022-11-03T08:40:04;33.67;;;21.58;;
64791;SDS011;51226;47.504;19.074;2022-11-03T08:43:30;31.55;;;21.73;;
64791;SDS011;51226;47.504;19.074;2022-11-03T08:47:20;35.15;;;20.58;;
64791;SDS011;51226;47.504;19.074;2022-11-03T08:51:31;36.03;;;22.20;;
64791;SDS011;51226;47.504;19.074;2022-11-03T08:54:35;31.77;;;21.02;;
64791;SDS011;51226;47.504;19.074;2022-11-03T08:57:39;31.45;;;21.40;;
64791;SDS011;51226;47.504;19.074;2022-11-03T09:00:41;36.58;;;23.45;;
64791;SDS011;51226;47.504;19.074;2022-11-03T09:03:44;33.67;;;21.15;;
64791;SDS011;51226;47.504;19.074;2022-11-03T09:06:47;36.85;;;24.20;;
64791;SDS011;51226;47.504;19.074;2022-11-03T09:09:50;34.22;;;22.40;;
64791;SDS011;51226;47.504;19.074;2022-11-03T09:13:15;36.63;;;22.73;;
64791;SDS011;51226;47.504;19.074;2022-11-03T09:16:19;36.72;;;22.62;;
64791;SDS011;51226;47.504;19.074;2022-11-03T09:19:26;33.75;;;22.20;;
64791;SDS011;51226;47.504;19.074;2022-11-03T09:22:32;34.55;;;22.52;;
64791;SDS011;51226;47.504;19.074;2022-11-03T09:25:39;32.15;;;22.08;;
64791;SDS011;51226;47.504;19.074;2022-11-03T09:28:47;33.95;;;21.92;;
64791;SDS011;51226;47.504;19.074;2022-11-03T09:31:55;33.78;;;22.35;;
64791;SDS011;51226;47.504;19.074;2022-11-03T09:34:58;35.72;;;21.33;;
64791;SDS011;51226;47.504;19.074;2022-11-03T09:41:04;32.47;;;21.83;;
64791;SDS011;51226;47.504;19.074;2022-11-03T09:44:27;37.95;;;24.40;;
64791;SDS011;51226;47.504;19.074;2022-11-03T09:50:42;39.47;;;24.42;;
64791;SDS011;51226;47.504;19.074;2022-11-03T09:53:46;35.40;;;23.15;;
64791;SDS011;51226;47.504;19.074;2022-11-03T09:56:49;36.45;;;24.55;;
64791;SDS011;51226;47.504;19.074;2022-11-03T09:59:53;40.15;;;24.37;;
64791;SDS011;51226;47.504;19.074;2022-11-03T10:02:56;41.47;;;25.33;;
64791;SDS011;51226;47.504;19.074;2022-11-03T10:09:14;39.97;;;23.80;;
64791;SDS011;51226;47.504;19.074;2022-11-03T10:12:23;35.58;;;24.75;;
64791;SDS011;51226;47.504;19.074;2022-11-03T10:15:27;42.75;;;26.10;;
64791;SDS011;51226;47.504;19.074;2022-11-03T10:18:31;36.33;;;24.10;;
64791;SDS011;51226;47.504;19.074;2022-11-03T10:21:35;33.85;;;24.77;;
64791;SDS011;51226;47.504;19.074;2022-11-03T10:24:41;38.97;;;24.92;;
64791;SDS011;51226;47.504;19.074;2022-11-03T10:27:44;37.70;;;24.83;;
64791;SDS011;51226;47.504;19.074;2022-11-03T10:30:57;37.28;;;24.33;;
64791;SDS011;51226;47.504;19.074;2022-11-03T10:37:26;38.33;;;24.40;;
64791;SDS011;51226;47.504;19.074;2022-11-03T10:40:32;36.22;;;23.23;;
64791;SDS011;51226;47.504;19.074;2022-11-03T10:44:40;39.50;;;24.67;;
64791;SDS011;51226;47.504;19.074;2022-11-03T10:47:23;36.40;;;23.97;;
64791;SDS011;51226;47.504;19.074;2022-11-03T10:50:39;37.95;;;24.37;;
64791;SDS011;51226;47.504;19.074;2022-11-03T10:53:43;40.88;;;25.65;;
64791;SDS011;51226;47.504;19.074;2022-11-03T10:56:46;39.47;;;23.90;;
64791;SDS011;51226;47.504;19.074;2022-11-03T10:59:51;37.65;;;23.45;;
64791;SDS011;51226;47.504;19.074;2022-11-03T11:02:57;38.42;;;23.62;;
64791;SDS011;51226;47.504;19.074;2022-11-03T11:06:02;38.45;;;23.98;;
64791;SDS011;51226;47.504;19.074;2022-11-03T11:09:08;37.40;;;24.73;;
64791;SDS011;51226;47.504;19.074;2022-11-03T11:12:14;34.80;;;22.60;;
64791;SDS011;51226;47.504;19.074;2022-11-03T11:28:10;41.37;;;24.75;;
64791;SDS011;51226;47.504;19.074;2022-11-03T11:37:36;38.75;;;25.23;;
64791;SDS011;51226;47.504;19.074;2022-11-03T11:40:49;46.08;;;27.35;;
64791;SDS011;51226;47.504;19.074;2022-11-03T11:43:52;39.30;;;25.85;;
64791;SDS011;51226;47.504;19.074;2022-11-03T11:46:55;43.05;;;25.60;;
64791;SDS011;51226;47.504;19.074;2022-11-03T11:53:13;45.75;;;25.33;;
64791;SDS011;51226;47.504;19.074;2022-11-03T11:56:22;43.90;;;27.20;;
64791;SDS011;51226;47.504;19.074;2022-11-03T11:59:25;45.12;;;26.58;;
64791;SDS011;51226;47.504;19.074;2022-11-03T12:02:29;41.45;;;27.25;;
64791;SDS011;51226;47.504;19.074;2022-11-03T12:05:33;41.90;;;25.55;;
64791;SDS011;51226;47.504;19.074;2022-11-03T12:08:36;43.80;;;27.33;;
64791;SDS011;51226;47.504;19.074;2022-11-03T12:11:47;49.03;;;28.27;;
64791;SDS011;51226;47.504;19.074;2022-11-03T12:14:56;41.88;;;25.45;;
64791;SDS011;51226;47.504;19.074;2022-11-03T12:24:56;48.63;;;29.33;;
64791;SDS011;51226;47.504;19.074;2022-11-03T12:27:59;46.65;;;28.23;;
64791;SDS011;51226;47.504;19.074;2022-11-03T12:31:02;46.92;;;26.85;;
64791;SDS011;51226;47.504;19.074;2022-11-03T12:34:05;50.47;;;29.52;;
64791;SDS011;51226;47.504;19.074;2022-11-03T12:37:08;51.60;;;30.55;;
64791;SDS011;51226;47.504;19.074;2022-11-03T12:40:11;57.03;;;31.10;;
64791;SDS011;51226;47.504;19.074;2022-11-03T12:43:16;46.92;;;28.98;;
64791;SDS011;51226;47.504;19.074;2022-11-03T12:46:19;51.58;;;30.20;;
64791;SDS011;51226;47.504;19.074;2022-11-03T12:49:23;47.92;;;27.10;;
64791;SDS011;51226;47.504;19.074;2022-11-03T12:52:25;43.33;;;27.98;;
64791;SDS011;51226;47.504;19.074;2022-11-03T12:55:29;49.63;;;30.60;;
64791;SDS011;51226;47.504;19.074;2022-11-03T12:58:31;49.63;;;29.25;;
64791;SDS011;51226;47.504;19.074;2022-11-03T13:01:34;44.25;;;28.80;;
64791;SDS011;51226;47.504;19.074;2022-11-03T13:04:37;50.83;;;29.25;;
64791;SDS011;51226;47.504;19.074;2022-11-03T13:07:41;48.10;;;27.90;;
64791;SDS011;51226;47.504;19.074;2022-11-03T13:10:44;46.90;;;27.80;;
64791;SDS011;51226;47.504;19.074;2022-11-03T13:13:51;51.13;;;31.17;;
64791;SDS011;51226;47.504;19.074;2022-11-03T13:16:54;55.75;;;29.30;;
64791;SDS011;51226;47.504;19.074;2022-11-03T13:23:00;49.80;;;29.15;;
64791;SDS011;51226;47.504;19.074;2022-11-03T13:26:03;45.58;;;28.50;;
64791;SDS011;51226;47.504;19.074;2022-11-03T13:29:06;47.42;;;28.08;;
64791;SDS011;51226;47.504;19.074;2022-11-03T13:32:09;48.87;;;28.23;;
64791;SDS011;51226;47.504;19.074;2022-11-03T13:35:12;39.55;;;25.75;;
64791;SDS011;51226;47.504;19.074;2022-11-03T13:38:16;41.53;;;25.20;;
64791;SDS011;51226;47.504;19.074;2022-11-03T13:41:18;36.28;;;23.67;;
64791;SDS011;51226;47.504;19.074;2022-11-03T13:44:24;35.80;;;25.48;;
64791;SDS011;51226;47.504;19.074;2022-11-03T13:47:26;37.65;;;25.15;;
64791;SDS011;51226;47.504;19.074;2022-11-03T13:50:49;36.88;;;23.83;;
64791;SDS011;51226;47.504;19.074;2022-11-03T13:53:53;35.95;;;23.70;;
64791;SDS011;51226;47.504;19.074;2022-11-03T13:57:17;32.90;;;23.98;;
64791;SDS011;51226;47.504;19.074;2022-11-03T14:00:39;40.37;;;25.60;;
64791;SDS011;51226;47.504;19.074;2022-11-03T14:03:42;36.83;;;24.92;;
64791;SDS011;51226;47.504;19.074;2022-11-03T14:07:05;34.22;;;23.73;;
64791;SDS011;51226;47.504;19.074;2022-11-03T14:10:09;38.08;;;24.90;;
64791;SDS011;51226;47.504;19.074;2022-11-03T14:16:14;34.88;;;23.42;;
64791;SDS011;51226;47.504;19.074;2022-11-03T14:19:17;33.88;;;22.55;;
64791;SDS011;51226;47.504;19.074;2022-11-03T14:22:20;33.28;;;21.70;;
64791;SDS011;51226;47.504;19.074;2022-11-03T14:25:23;33.47;;;22.62;;
64791;SDS011;51226;47.504;19.074;2022-11-03T14:28:26;30.25;;;21.90;;
64791;SDS011;51226;47.504;19.074;2022-11-03T14:31:33;31.12;;;22.77;;
64791;SDS011;51226;47.504;19.074;2022-11-03T14:34:37;36.53;;;23.38;;
64791;SDS011;51226;47.504;19.074;2022-11-03T14:37:40;31.37;;;23.25;;
64791;SDS011;51226;47.504;19.074;2022-11-03T14:44:04;34.88;;;23.30;;
64791;SDS011;51226;47.504;19.074;2022-11-03T14:47:09;31.80;;;23.45;;
64791;SDS011;51226;47.504;19.074;2022-11-03T14:50:13;32.25;;;23.65;;
64791;SDS011;51226;47.504;19.074;2022-11-03T14:56:18;34.88;;;24.35;;
64791;SDS011;51226;47.504;19.074;2022-11-03T14:59:22;30.58;;;23.92;;
64791;SDS011;51226;47.504;19.074;2022-11-03T15:02:24;34.78;;;26.00;;
64791;SDS011;51226;47.504;19.074;2022-11-03T15:05:27;36.38;;;26.45;;
64791;SDS011;51226;47.504;19.074;2022-11-03T15:08:45;41.75;;;27.90;;
64791;SDS011;51226;47.504;19.074;2022-11-03T15:11:53;40.80;;;29.12;;
64791;SDS011;51226;47.504;19.074;2022-11-03T15:14:56;42.35;;;28.23;;
64791;SDS011;51226;47.504;19.074;2022-11-03T15:21:04;31.98;;;23.10;;
64791;SDS011;51226;47.504;19.074;2022-11-03T15:24:07;30.23;;;23.20;;
64791;SDS011;51226;47.504;19.074;2022-11-03T15:27:30;29.65;;;23.65;;
64791;SDS011;51226;47.504;19.074;2022-11-03T15:30:33;32.58;;;23.30;;
64791;SDS011;51226;47.504;19.074;2022-11-03T15:36:39;27.70;;;22.50;;
64791;SDS011;51226;47.504;19.074;2022-11-03T15:39:44;30.27;;;23.15;;
64791;SDS011;51226;47.504;19.074;2022-11-03T15:42:47;33.15;;;24.42;;
64791;SDS011;51226;47.504;19.074;2022-11-03T15:45:50;30.35;;;23.27;;
64791;SDS011;51226;47.504;19.074;2022-11-03T15:48:53;30.92;;;24.00;;
64791;SDS011;51226;47.504;19.074;2022-11-03T15:51:57;29.17;;;23.02;;
64791;SDS011;51226;47.504;19.074;2022-11-03T15:55:09;28.55;;;21.95;;
64791;SDS011;51226;47.504;19.074;2022-11-03T15:58:12;31.05;;;22.75;;
64791;SDS011;51226;47.504;19.074;2022-11-03T16:01:15;30.30;;;23.35;;
64791;SDS011;51226;47.504;19.074;2022-11-03T16:04:18;27.25;;;21.67;;
64791;SDS011;51226;47.504;19.074;2022-11-03T16:07:20;33.30;;;24.55;;
64791;SDS011;51226;47.504;19.074;2022-11-03T16:10:23;35.30;;;26.70;;
64791;SDS011;51226;47.504;19.074;2022-11-03T16:13:26;37.80;;;26.40;;
64791;SDS011;51226;47.504;19.074;2022-11-03T16:16:29;38.60;;;25.73;;
64791;SDS011;51226;47.504;19.074;2022-11-03T16:19:32;37.78;;;26.98;;
64791;SDS011;51226;47.504;19.074;2022-11-03T16:22:34;38.65;;;27.45;;
64791;SDS011;51226;47.504;19.074;2022-11-03T16:25:38;37.95;;;27.45;;
64791;SDS011;51226;47.504;19.074;2022-11-03T16:28:41;38.30;;;28.00;;
64791;SDS011;51226;47.504;19.074;2022-11-03T16:31:44;42.25;;;28.92;;
64791;SDS011;51226;47.504;19.074;2022-11-03T16:34:49;43.58;;;29.12;;
64791;SDS011;51226;47.504;19.074;2022-11-03T16:37:52;42.70;;;28.90;;
64791;SDS011;51226;47.504;19.074;2022-11-03T16:40:55;42.28;;;28.62;;
64791;SDS011;51226;47.504;19.074;2022-11-03T16:43:58;44.28;;;29.73;;
64791;SDS011;51226;47.504;19.074;2022-11-03T16:47:01;52.78;;;32.70;;
64791;SDS011;51226;47.504;19.074;2022-11-03T16:50:04;45.45;;;30.08;;
64791;SDS011;51226;47.504;19.074;2022-11-03T16:53:07;50.35;;;30.75;;
64791;SDS011;51226;47.504;19.074;2022-11-03T16:56:11;43.45;;;28.87;;
64791;SDS011;51226;47.504;19.074;2022-11-03T16:59:13;50.95;;;30.45;;
64791;SDS011;51226;47.504;19.074;2022-11-03T17:02:16;45.03;;;30.00;;
64791;SDS011;51226;47.504;19.074;2022-11-03T17:05:20;44.15;;;30.40;;
64791;SDS011;51226;47.504;19.074;2022-11-03T17:08:24;51.50;;;31.73;;
64791;SDS011;51226;47.504;19.074;2022-11-03T17:11:46;53.80;;;33.23;;
64791;SDS011;51226;47.504;19.074;2022-11-03T17:14:49;52.25;;;32.05;;
64791;SDS011;51226;47.504;19.074;2022-11-03T17:17:58;56.03;;;32.92;;
64791;SDS011;51226;47.504;19.074;2022-11-03T17:21:01;52.70;;;32.63;;
64791;SDS011;51226;47.504;19.074;2022-11-03T17:24:04;54.97;;;33.90;;
64791;SDS011;51226;47.504;19.074;2022-11-03T17:27:12;60.03;;;33.35;;
64791;SDS011;51226;47.504;19.074;2022-11-03T17:30:18;51.63;;;34.25;;
64791;SDS011;51226;47.504;19.074;2022-11-03T17:33:22;53.72;;;33.05;;
64791;SDS011;51226;47.504;19.074;2022-11-03T17:36:25;51.78;;;34.33;;
64791;SDS011;51226;47.504;19.074;2022-11-03T17:39:31;54.78;;;34.72;;
64791;SDS011;51226;47.504;19.074;2022-11-03T17:42:35;57.80;;;35.17;;
64791;SDS011;51226;47.504;19.074;2022-11-03T17:45:39;55.25;;;36.08;;
64791;SDS011;51226;47.504;19.074;2022-11-03T17:48:43;56.65;;;34.85;;
64791;SDS011;51226;47.504;19.074;2022-11-03T17:51:48;57.90;;;36.28;;
64791;SDS011;51226;47.504;19.074;2022-11-03T17:54:52;60.22;;;36.38;;
64791;SDS011;51226;47.504;19.074;2022-11-03T17:57:58;57.80;;;36.00;;
64791;SDS011;51226;47.504;19.074;2022-11-03T18:01:02;63.15;;;37.60;;
64791;SDS011;51226;47.504;19.074;2022-11-03T18:04:11;58.47;;;36.28;;
64791;SDS011;51226;47.504;19.074;2022-11-03T18:07:19;54.45;;;33.60;;
64791;SDS011;51226;47.504;19.074;2022-11-03T18:10:32;60.55;;;35.97;;
64791;SDS011;51226;47.504;19.074;2022-11-03T18:13:37;59.00;;;33.65;;
64791;SDS011;51226;47.504;19.074;2022-11-03T18:19:42;53.35;;;33.28;;
64791;SDS011;51226;47.504;19.074;2022-11-03T18:22:45;55.50;;;33.13;;
64791;SDS011;51226;47.504;19.074;2022-11-03T18:25:48;49.55;;;34.30;;
64791;SDS011;51226;47.504;19.074;2022-11-03T18:28:52;51.42;;;33.92;;
64791;SDS011;51226;47.504;19.074;2022-11-03T18:34:59;55.88;;;35.10;;
64791;SDS011;51226;47.504;19.074;2022-11-03T18:38:02;54.22;;;33.35;;
64791;SDS011;51226;47.504;19.074;2022-11-03T18:41:16;56.33;;;33.63;;
64791;SDS011;51226;47.504;19.074;2022-11-03T18:44:41;55.47;;;32.90;;
64791;SDS011;51226;47.504;19.074;2022-11-03T18:47:44;54.00;;;34.10;;
64791;SDS011;51226;47.504;19.074;2022-11-03T18:50:47;57.25;;;34.90;;
64791;SDS011;51226;47.504;19.074;2022-11-03T18:53:52;57.13;;;34.92;;
64791;SDS011;51226;47.504;19.074;2022-11-03T18:56:55;55.00;;;33.30;;
64791;SDS011;51226;47.504;19.074;2022-11-03T18:59:59;53.60;;;33.97;;
64791;SDS011;51226;47.504;19.074;2022-11-03T19:03:03;55.67;;;34.85;;
64791;SDS011;51226;47.504;19.074;2022-11-03T19:06:07;57.70;;;34.60;;
64791;SDS011;51226;47.504;19.074;2022-11-03T19:09:12;61.33;;;33.78;;
64791;SDS011;51226;47.504;19.074;2022-11-03T19:12:17;51.70;;;33.53;;
64791;SDS011;51226;47.504;19.074;2022-11-03T19:15:21;52.45;;;34.97;;
64791;SDS011;51226;47.504;19.074;2022-11-03T19:18:27;57.00;;;34.50;;
64791;SDS011;51226;47.504;19.074;2022-11-03T19:21:31;56.13;;;33.25;;
64791;SDS011;51226;47.504;19.074;2022-11-03T19:24:35;52.15;;;34.33;;
64791;SDS011;51226;47.504;19.074;2022-11-03T19:27:39;56.47;;;33.80;;
64791;SDS011;51226;47.504;19.074;2022-11-03T19:30:44;55.47;;;32.60;;
64791;SDS011;51226;47.504;19.074;2022-11-03T19:33:48;54.30;;;34.58;;
64791;SDS011;51226;47.504;19.074;2022-11-03T19:36:55;63.00;;;34.33;;
64791;SDS011;51226;47.504;19.074;2022-11-03T19:39:58;58.65;;;34.58;;
64791;SDS011;51226;47.504;19.074;2022-11-03T19:43:02;58.42;;;34.05;;
64791;SDS011;51226;47.504;19.074;2022-11-03T19:46:07;58.97;;;33.03;;
64791;SDS011;51226;47.504;19.074;2022-11-03T19:49:19;59.03;;;33.20;;
64791;SDS011;51226;47.504;19.074;2022-11-03T19:52:24;59.60;;;33.57;;
64791;SDS011;51226;47.504;19.074;2022-11-03T19:55:30;56.47;;;33.20;;